sensor_id;sensor_type;location;lat;lon;timestamp;P1;durP1;ratioP1;P2;durP2;ratioP2
12218;SDS011;6172;42.646;23.344;2023-08-07T00:01:19;0.40;;;0.40;;
12218;SDS011;6172;42.646;23.344;2023-08-07T00:03:45;0.47;;;0.47;;
12218;SDS011;6172;42.646;23.344;2023-08-07T00:06:14;0.68;;;0.55;;
12218;SDS011;6172;42.646;23.344;2023-08-07T00:08:40;0.50;;;0.50;;
12218;SDS011;6172;42.646;23.344;2023-08-07T00:11:07;0.40;;;0.40;;
12218;SDS011;6172;42.646;23.344;2023-08-07T00:13:34;0.65;;;0.65;;
12218;SDS011;6172;42.646;23.344;2023-08-07T00:16:01;1.17;;;0.60;;
12218;SDS011;6172;42.646;23.344;2023-08-07T00:18:28;1.23;;;0.60;;
12218;SDS011;6172;42.646;23.344;2023-08-07T00:20:56;0.60;;;0.60;;
12218;SDS011;6172;42.646;23.344;2023-08-07T00:23:24;0.60;;;0.60;;
12218;SDS011;6172;42.646;23.344;2023-08-07T00:25:50;1.33;;;0.77;;
12218;SDS011;6172;42.646;23.344;2023-08-07T00:28:17;1.00;;;1.00;;
12218;SDS011;6172;42.646;23.344;2023-08-07T00:30:44;0.70;;;0.70;;
12218;SDS011;6172;42.646;23.344;2023-08-07T00:33:11;0.77;;;0.77;;
12218;SDS011;6172;42.646;23.344;2023-08-07T00:35:37;0.90;;;0.90;;
12218;SDS011;6172;42.646;23.344;2023-08-07T00:38:04;0.80;;;0.80;;
12218;SDS011;6172;42.646;23.344;2023-08-07T00:40:37;0.80;;;0.80;;
12218;SDS011;6172;42.646;23.344;2023-08-07T00:43:04;0.80;;;0.80;;
12218;SDS011;6172;42.646;23.344;2023-08-07T00:45:32;0.88;;;0.88;;
12218;SDS011;6172;42.646;23.344;2023-08-07T00:48:02;1.55;;;0.70;;
12218;SDS011;6172;42.646;23.344;2023-08-07T00:50:30;0.90;;;0.90;;
12218;SDS011;6172;42.646;23.344;2023-08-07T00:52:57;1.40;;;0.90;;
12218;SDS011;6172;42.646;23.344;2023-08-07T00:55:25;1.00;;;1.00;;
12218;SDS011;6172;42.646;23.344;2023-08-07T00:57:53;1.17;;;1.07;;
12218;SDS011;6172;42.646;23.344;2023-08-07T01:00:20;1.10;;;1.10;;
12218;SDS011;6172;42.646;23.344;2023-08-07T01:02:47;1.40;;;1.30;;
12218;SDS011;6172;42.646;23.344;2023-08-07T01:05:16;4.30;;;1.30;;
12218;SDS011;6172;42.646;23.344;2023-08-07T01:07:44;1.40;;;1.30;;
12218;SDS011;6172;42.646;23.344;2023-08-07T01:10:11;3.43;;;1.20;;
12218;SDS011;6172;42.646;23.344;2023-08-07T01:12:40;1.63;;;1.53;;
12218;SDS011;6172;42.646;23.344;2023-08-07T01:15:16;1.50;;;1.40;;
12218;SDS011;6172;42.646;23.344;2023-08-07T01:17:48;1.23;;;1.23;;
12218;SDS011;6172;42.646;23.344;2023-08-07T01:20:15;1.40;;;1.40;;
12218;SDS011;6172;42.646;23.344;2023-08-07T01:22:43;2.10;;;1.43;;
12218;SDS011;6172;42.646;23.344;2023-08-07T01:25:10;1.73;;;1.50;;
12218;SDS011;6172;42.646;23.344;2023-08-07T01:27:40;1.50;;;1.40;;
12218;SDS011;6172;42.646;23.344;2023-08-07T01:30:15;1.07;;;1.07;;
12218;SDS011;6172;42.646;23.344;2023-08-07T01:33:05;1.50;;;1.40;;
12218;SDS011;6172;42.646;23.344;2023-08-07T01:35:39;1.80;;;1.70;;
12218;SDS011;6172;42.646;23.344;2023-08-07T01:38:10;1.70;;;1.60;;
12218;SDS011;6172;42.646;23.344;2023-08-07T01:40:38;1.70;;;1.60;;
12218;SDS011;6172;42.646;23.344;2023-08-07T01:43:05;1.80;;;1.70;;
12218;SDS011;6172;42.646;23.344;2023-08-07T01:45:32;1.80;;;1.70;;
12218;SDS011;6172;42.646;23.344;2023-08-07T01:47:59;1.70;;;1.60;;
12218;SDS011;6172;42.646;23.344;2023-08-07T01:50:27;2.17;;;1.37;;
12218;SDS011;6172;42.646;23.344;2023-08-07T01:52:54;2.07;;;1.80;;
12218;SDS011;6172;42.646;23.344;2023-08-07T01:55:22;1.70;;;1.60;;
12218;SDS011;6172;42.646;23.344;2023-08-07T01:57:49;1.70;;;1.60;;
12218;SDS011;6172;42.646;23.344;2023-08-07T02:00:16;1.50;;;1.40;;
12218;SDS011;6172;42.646;23.344;2023-08-07T02:02:43;2.83;;;1.60;;
12218;SDS011;6172;42.646;23.344;2023-08-07T02:05:11;1.67;;;1.50;;
12218;SDS011;6172;42.646;23.344;2023-08-07T02:07:38;2.57;;;1.50;;
12218;SDS011;6172;42.646;23.344;2023-08-07T02:10:05;1.53;;;1.43;;
12218;SDS011;6172;42.646;23.344;2023-08-07T02:12:34;2.63;;;1.50;;
12218;SDS011;6172;42.646;23.344;2023-08-07T02:15:01;1.57;;;1.40;;
12218;SDS011;6172;42.646;23.344;2023-08-07T02:17:28;2.03;;;1.70;;
12218;SDS011;6172;42.646;23.344;2023-08-07T02:19:56;2.00;;;1.90;;
12218;SDS011;6172;42.646;23.344;2023-08-07T02:22:23;5.07;;;1.73;;
12218;SDS011;6172;42.646;23.344;2023-08-07T02:24:49;1.50;;;1.40;;
12218;SDS011;6172;42.646;23.344;2023-08-07T02:27:16;4.00;;;1.70;;
12218;SDS011;6172;42.646;23.344;2023-08-07T02:29:45;2.53;;;1.70;;
12218;SDS011;6172;42.646;23.344;2023-08-07T02:32:11;1.83;;;1.67;;
12218;SDS011;6172;42.646;23.344;2023-08-07T02:34:38;1.80;;;1.70;;
12218;SDS011;6172;42.646;23.344;2023-08-07T02:37:05;1.80;;;1.70;;
12218;SDS011;6172;42.646;23.344;2023-08-07T02:39:32;2.10;;;2.00;;
12218;SDS011;6172;42.646;23.344;2023-08-07T02:41:58;3.03;;;2.10;;
12218;SDS011;6172;42.646;23.344;2023-08-07T02:44:25;3.93;;;1.70;;
12218;SDS011;6172;42.646;23.344;2023-08-07T02:46:53;1.97;;;1.87;;
12218;SDS011;6172;42.646;23.344;2023-08-07T02:49:20;2.10;;;2.00;;
12218;SDS011;6172;42.646;23.344;2023-08-07T02:51:47;2.30;;;2.10;;
12218;SDS011;6172;42.646;23.344;2023-08-07T02:54:13;2.10;;;2.00;;
12218;SDS011;6172;42.646;23.344;2023-08-07T02:56:40;1.93;;;1.73;;
12218;SDS011;6172;42.646;23.344;2023-08-07T02:59:07;2.10;;;2.00;;
12218;SDS011;6172;42.646;23.344;2023-08-07T03:01:34;2.80;;;2.10;;
12218;SDS011;6172;42.646;23.344;2023-08-07T03:04:02;2.30;;;2.10;;
12218;SDS011;6172;42.646;23.344;2023-08-07T03:06:29;2.10;;;1.87;;
12218;SDS011;6172;42.646;23.344;2023-08-07T03:08:56;2.80;;;1.87;;
12218;SDS011;6172;42.646;23.344;2023-08-07T03:11:23;2.50;;;2.30;;
12218;SDS011;6172;42.646;23.344;2023-08-07T03:13:50;1.93;;;1.83;;
12218;SDS011;6172;42.646;23.344;2023-08-07T03:16:16;2.27;;;2.17;;
12218;SDS011;6172;42.646;23.344;2023-08-07T03:18:43;2.13;;;2.00;;
12218;SDS011;6172;42.646;23.344;2023-08-07T03:21:11;2.10;;;2.00;;
12218;SDS011;6172;42.646;23.344;2023-08-07T03:23:38;2.23;;;2.10;;
12218;SDS011;6172;42.646;23.344;2023-08-07T03:26:06;1.87;;;1.77;;
12218;SDS011;6172;42.646;23.344;2023-08-07T03:28:34;3.13;;;2.63;;
12218;SDS011;6172;42.646;23.344;2023-08-07T03:31:01;2.10;;;2.00;;
12218;SDS011;6172;42.646;23.344;2023-08-07T03:33:28;2.00;;;1.90;;
12218;SDS011;6172;42.646;23.344;2023-08-07T03:35:54;2.23;;;2.03;;
12218;SDS011;6172;42.646;23.344;2023-08-07T03:38:23;1.90;;;1.80;;
12218;SDS011;6172;42.646;23.344;2023-08-07T03:40:50;1.93;;;1.83;;
12218;SDS011;6172;42.646;23.344;2023-08-07T03:43:17;2.40;;;2.20;;
12218;SDS011;6172;42.646;23.344;2023-08-07T03:45:44;1.80;;;1.70;;
12218;SDS011;6172;42.646;23.344;2023-08-07T03:48:11;2.30;;;2.10;;
12218;SDS011;6172;42.646;23.344;2023-08-07T03:50:38;2.63;;;2.23;;
12218;SDS011;6172;42.646;23.344;2023-08-07T03:53:05;2.57;;;2.37;;
12218;SDS011;6172;42.646;23.344;2023-08-07T03:55:34;2.33;;;2.10;;
12218;SDS011;6172;42.646;23.344;2023-08-07T03:58:01;5.00;;;1.93;;
12218;SDS011;6172;42.646;23.344;2023-08-07T04:00:28;2.23;;;2.13;;
12218;SDS011;6172;42.646;23.344;2023-08-07T04:02:55;1.93;;;1.83;;
12218;SDS011;6172;42.646;23.344;2023-08-07T04:05:22;2.47;;;2.00;;
12218;SDS011;6172;42.646;23.344;2023-08-07T04:07:49;2.17;;;2.07;;
12218;SDS011;6172;42.646;23.344;2023-08-07T04:10:16;2.00;;;1.90;;
12218;SDS011;6172;42.646;23.344;2023-08-07T04:12:44;2.87;;;2.13;;
12218;SDS011;6172;42.646;23.344;2023-08-07T04:15:11;2.20;;;1.80;;
12218;SDS011;6172;42.646;23.344;2023-08-07T04:17:38;1.93;;;1.50;;
12218;SDS011;6172;42.646;23.344;2023-08-07T04:20:05;1.90;;;1.80;;
12218;SDS011;6172;42.646;23.344;2023-08-07T04:22:33;2.00;;;1.90;;
12218;SDS011;6172;42.646;23.344;2023-08-07T04:25:00;1.90;;;1.80;;
12218;SDS011;6172;42.646;23.344;2023-08-07T04:27:27;1.60;;;1.50;;
12218;SDS011;6172;42.646;23.344;2023-08-07T04:29:55;2.33;;;1.90;;
12218;SDS011;6172;42.646;23.344;2023-08-07T04:32:22;1.63;;;1.53;;
12218;SDS011;6172;42.646;23.344;2023-08-07T04:34:49;1.63;;;1.53;;
12218;SDS011;6172;42.646;23.344;2023-08-07T04:37:16;1.83;;;1.60;;
12218;SDS011;6172;42.646;23.344;2023-08-07T04:39:43;2.00;;;1.80;;
12218;SDS011;6172;42.646;23.344;2023-08-07T04:42:10;2.40;;;2.00;;
12218;SDS011;6172;42.646;23.344;2023-08-07T04:44:36;2.17;;;1.77;;
12218;SDS011;6172;42.646;23.344;2023-08-07T04:47:05;2.40;;;2.00;;
12218;SDS011;6172;42.646;23.344;2023-08-07T04:49:32;3.10;;;2.13;;
12218;SDS011;6172;42.646;23.344;2023-08-07T04:51:59;2.10;;;1.60;;
12218;SDS011;6172;42.646;23.344;2023-08-07T04:54:26;1.70;;;1.50;;
12218;SDS011;6172;42.646;23.344;2023-08-07T04:56:52;1.97;;;1.63;;
12218;SDS011;6172;42.646;23.344;2023-08-07T04:59:19;5.20;;;1.83;;
12218;SDS011;6172;42.646;23.344;2023-08-07T05:01:46;2.20;;;1.70;;
12218;SDS011;6172;42.646;23.344;2023-08-07T05:04:14;1.90;;;1.80;;
12218;SDS011;6172;42.646;23.344;2023-08-07T05:06:41;1.80;;;1.70;;
12218;SDS011;6172;42.646;23.344;2023-08-07T05:09:07;2.27;;;1.53;;
12218;SDS011;6172;42.646;23.344;2023-08-07T05:11:34;1.40;;;1.30;;
12218;SDS011;6172;42.646;23.344;2023-08-07T05:14:01;1.97;;;1.70;;
12218;SDS011;6172;42.646;23.344;2023-08-07T05:16:28;1.43;;;1.33;;
12218;SDS011;6172;42.646;23.344;2023-08-07T05:18:55;1.50;;;1.40;;
12218;SDS011;6172;42.646;23.344;2023-08-07T05:21:23;1.80;;;1.40;;
12218;SDS011;6172;42.646;23.344;2023-08-07T05:23:50;1.73;;;1.60;;
12218;SDS011;6172;42.646;23.344;2023-08-07T05:26:18;1.57;;;1.37;;
12218;SDS011;6172;42.646;23.344;2023-08-07T05:28:45;1.30;;;1.30;;
12218;SDS011;6172;42.646;23.344;2023-08-07T05:31:12;2.30;;;1.50;;
12218;SDS011;6172;42.646;23.344;2023-08-07T05:33:39;2.75;;;1.80;;
12218;SDS011;6172;42.646;23.344;2023-08-07T05:36:06;1.65;;;1.33;;
12218;SDS011;6172;42.646;23.344;2023-08-07T05:38:34;1.65;;;1.55;;
12218;SDS011;6172;42.646;23.344;2023-08-07T05:41:01;1.60;;;1.50;;
12218;SDS011;6172;42.646;23.344;2023-08-07T05:43:27;2.47;;;2.08;;
12218;SDS011;6172;42.646;23.344;2023-08-07T05:45:54;1.65;;;1.55;;
12218;SDS011;6172;42.646;23.344;2023-08-07T05:48:21;3.05;;;1.70;;
12218;SDS011;6172;42.646;23.344;2023-08-07T05:50:47;2.78;;;1.20;;
12218;SDS011;6172;42.646;23.344;2023-08-07T05:53:14;1.55;;;1.17;;
12218;SDS011;6172;42.646;23.344;2023-08-07T05:55:42;1.02;;;0.90;;
12218;SDS011;6172;42.646;23.344;2023-08-07T05:58:09;0.93;;;0.93;;
12218;SDS011;6172;42.646;23.344;2023-08-07T06:00:36;1.83;;;1.10;;
12218;SDS011;6172;42.646;23.344;2023-08-07T06:03:05;4.22;;;1.60;;
12218;SDS011;6172;42.646;23.344;2023-08-07T06:05:32;1.88;;;1.15;;
12218;SDS011;6172;42.646;23.344;2023-08-07T06:07:59;2.00;;;0.95;;
12218;SDS011;6172;42.646;23.344;2023-08-07T06:10:26;2.35;;;0.90;;
12218;SDS011;6172;42.646;23.344;2023-08-07T06:12:54;8.25;;;1.35;;
12218;SDS011;6172;42.646;23.344;2023-08-07T06:15:21;6.28;;;1.15;;
12218;SDS011;6172;42.646;23.344;2023-08-07T06:17:48;1.98;;;1.08;;
12218;SDS011;6172;42.646;23.344;2023-08-07T06:20:16;2.28;;;0.98;;
12218;SDS011;6172;42.646;23.344;2023-08-07T06:22:43;1.48;;;0.73;;
12218;SDS011;6172;42.646;23.344;2023-08-07T06:25:10;0.80;;;0.80;;
12218;SDS011;6172;42.646;23.344;2023-08-07T06:27:39;1.42;;;0.82;;
12218;SDS011;6172;42.646;23.344;2023-08-07T06:30:08;1.38;;;0.70;;
12218;SDS011;6172;42.646;23.344;2023-08-07T06:32:36;0.90;;;0.90;;
12218;SDS011;6172;42.646;23.344;2023-08-07T06:35:03;1.52;;;0.80;;
12218;SDS011;6172;42.646;23.344;2023-08-07T06:37:30;4.55;;;1.33;;
12218;SDS011;6172;42.646;23.344;2023-08-07T06:39:57;1.38;;;0.70;;
12218;SDS011;6172;42.646;23.344;2023-08-07T06:42:24;3.88;;;1.98;;
12218;SDS011;6172;42.646;23.344;2023-08-07T06:44:51;1.70;;;0.93;;
12218;SDS011;6172;42.646;23.344;2023-08-07T06:47:19;0.40;;;0.40;;
12218;SDS011;6172;42.646;23.344;2023-08-07T06:49:46;0.82;;;0.60;;
12218;SDS011;6172;42.646;23.344;2023-08-07T06:52:12;2.08;;;0.43;;
12218;SDS011;6172;42.646;23.344;2023-08-07T06:54:39;0.68;;;0.30;;
12218;SDS011;6172;42.646;23.344;2023-08-07T06:57:06;1.25;;;0.75;;
12218;SDS011;6172;42.646;23.344;2023-08-07T06:59:33;0.73;;;0.60;;
12218;SDS011;6172;42.646;23.344;2023-08-07T07:02:00;0.40;;;0.40;;
12218;SDS011;6172;42.646;23.344;2023-08-07T07:04:28;1.77;;;0.45;;
12218;SDS011;6172;42.646;23.344;2023-08-07T07:06:55;0.75;;;0.75;;
12218;SDS011;6172;42.646;23.344;2023-08-07T07:09:21;2.50;;;0.60;;
12218;SDS011;6172;42.646;23.344;2023-08-07T07:11:48;1.45;;;0.30;;
12218;SDS011;6172;42.646;23.344;2023-08-07T07:14:15;0.28;;;0.20;;
12218;SDS011;6172;42.646;23.344;2023-08-07T07:16:42;1.67;;;0.50;;
12218;SDS011;6172;42.646;23.344;2023-08-07T07:19:08;3.28;;;0.40;;
12218;SDS011;6172;42.646;23.344;2023-08-07T07:21:37;5.93;;;0.95;;
12218;SDS011;6172;42.646;23.344;2023-08-07T07:24:04;1.30;;;0.77;;
12218;SDS011;6172;42.646;23.344;2023-08-07T07:26:31;1.42;;;0.50;;
12218;SDS011;6172;42.646;23.344;2023-08-07T07:28:58;1.02;;;0.35;;
12218;SDS011;6172;42.646;23.344;2023-08-07T07:31:25;0.82;;;0.40;;
12218;SDS011;6172;42.646;23.344;2023-08-07T07:33:51;3.35;;;0.60;;
12218;SDS011;6172;42.646;23.344;2023-08-07T07:36:18;3.65;;;0.50;;
12218;SDS011;6172;42.646;23.344;2023-08-07T07:38:46;1.85;;;0.50;;
12218;SDS011;6172;42.646;23.344;2023-08-07T07:41:13;2.67;;;0.43;;
12218;SDS011;6172;42.646;23.344;2023-08-07T07:43:40;1.48;;;0.63;;
12218;SDS011;6172;42.646;23.344;2023-08-07T07:46:07;1.58;;;0.50;;
12218;SDS011;6172;42.646;23.344;2023-08-07T07:48:34;1.95;;;0.60;;
12218;SDS011;6172;42.646;23.344;2023-08-07T07:51:01;3.03;;;0.38;;
12218;SDS011;6172;42.646;23.344;2023-08-07T07:53:29;2.25;;;0.40;;
12218;SDS011;6172;42.646;23.344;2023-08-07T07:55:57;1.35;;;0.60;;
12218;SDS011;6172;42.646;23.344;2023-08-07T07:58:24;1.25;;;0.70;;
12218;SDS011;6172;42.646;23.344;2023-08-07T08:00:51;0.50;;;0.50;;
12218;SDS011;6172;42.646;23.344;2023-08-07T08:03:19;1.27;;;0.60;;
12218;SDS011;6172;42.646;23.344;2023-08-07T08:05:48;0.40;;;0.40;;
12218;SDS011;6172;42.646;23.344;2023-08-07T08:08:16;2.05;;;0.70;;
12218;SDS011;6172;42.646;23.344;2023-08-07T08:10:43;0.82;;;0.68;;
12218;SDS011;6172;42.646;23.344;2023-08-07T08:13:13;1.67;;;0.73;;
12218;SDS011;6172;42.646;23.344;2023-08-07T08:15:40;0.70;;;0.70;;
12218;SDS011;6172;42.646;23.344;2023-08-07T08:18:07;1.17;;;0.90;;
12218;SDS011;6172;42.646;23.344;2023-08-07T08:20:33;2.40;;;0.85;;
12218;SDS011;6172;42.646;23.344;2023-08-07T08:23:00;1.25;;;0.70;;
12218;SDS011;6172;42.646;23.344;2023-08-07T08:25:27;5.50;;;0.85;;
12218;SDS011;6172;42.646;23.344;2023-08-07T08:27:54;3.22;;;0.50;;
12218;SDS011;6172;42.646;23.344;2023-08-07T08:30:22;0.43;;;0.43;;
12218;SDS011;6172;42.646;23.344;2023-08-07T08:32:49;0.98;;;0.40;;
12218;SDS011;6172;42.646;23.344;2023-08-07T08:35:15;2.00;;;0.88;;
12218;SDS011;6172;42.646;23.344;2023-08-07T08:37:43;0.65;;;0.50;;
12218;SDS011;6172;42.646;23.344;2023-08-07T08:40:10;0.80;;;0.45;;
12218;SDS011;6172;42.646;23.344;2023-08-07T08:42:42;2.67;;;0.57;;
12218;SDS011;6172;42.646;23.344;2023-08-07T08:45:09;1.58;;;0.70;;
12218;SDS011;6172;42.646;23.344;2023-08-07T08:47:40;1.38;;;0.80;;
12218;SDS011;6172;42.646;23.344;2023-08-07T08:50:10;2.67;;;0.65;;
12218;SDS011;6172;42.646;23.344;2023-08-07T08:52:41;2.47;;;0.80;;
12218;SDS011;6172;42.646;23.344;2023-08-07T08:55:09;2.50;;;0.93;;
12218;SDS011;6172;42.646;23.344;2023-08-07T08:57:37;0.65;;;0.60;;
12218;SDS011;6172;42.646;23.344;2023-08-07T09:00:05;3.28;;;0.50;;
12218;SDS011;6172;42.646;23.344;2023-08-07T09:02:44;3.55;;;0.88;;
12218;SDS011;6172;42.646;23.344;2023-08-07T09:05:13;0.77;;;0.77;;
12218;SDS011;6172;42.646;23.344;2023-08-07T09:07:43;0.70;;;0.50;;
12218;SDS011;6172;42.646;23.344;2023-08-07T09:10:11;0.40;;;0.40;;
12218;SDS011;6172;42.646;23.344;2023-08-07T09:12:39;0.80;;;0.60;;
12218;SDS011;6172;42.646;23.344;2023-08-07T09:15:08;2.10;;;0.57;;
12218;SDS011;6172;42.646;23.344;2023-08-07T09:17:38;0.75;;;0.60;;
12218;SDS011;6172;42.646;23.344;2023-08-07T09:20:09;0.60;;;0.60;;
12218;SDS011;6172;42.646;23.344;2023-08-07T09:22:37;0.90;;;0.82;;
12218;SDS011;6172;42.646;23.344;2023-08-07T09:25:05;0.95;;;0.85;;
12218;SDS011;6172;42.646;23.344;2023-08-07T09:27:32;2.33;;;0.73;;
12218;SDS011;6172;42.646;23.344;2023-08-07T09:30:03;1.20;;;0.50;;
12218;SDS011;6172;42.646;23.344;2023-08-07T09:32:33;0.50;;;0.50;;
12218;SDS011;6172;42.646;23.344;2023-08-07T09:35:01;0.88;;;0.70;;
12218;SDS011;6172;42.646;23.344;2023-08-07T09:37:31;1.10;;;0.50;;
12218;SDS011;6172;42.646;23.344;2023-08-07T09:39:59;0.57;;;0.57;;
12218;SDS011;6172;42.646;23.344;2023-08-07T09:42:26;1.27;;;0.60;;
12218;SDS011;6172;42.646;23.344;2023-08-07T09:44:57;1.63;;;0.60;;
12218;SDS011;6172;42.646;23.344;2023-08-07T09:47:24;1.52;;;0.77;;
12218;SDS011;6172;42.646;23.344;2023-08-07T09:49:54;1.50;;;0.65;;
12218;SDS011;6172;42.646;23.344;2023-08-07T09:52:21;0.55;;;0.40;;
12218;SDS011;6172;42.646;23.344;2023-08-07T09:54:52;0.77;;;0.60;;
12218;SDS011;6172;42.646;23.344;2023-08-07T09:57:22;2.60;;;0.60;;
12218;SDS011;6172;42.646;23.344;2023-08-07T09:59:49;0.60;;;0.60;;
12218;SDS011;6172;42.646;23.344;2023-08-07T10:02:16;3.40;;;0.70;;
12218;SDS011;6172;42.646;23.344;2023-08-07T10:04:43;0.85;;;0.75;;
12218;SDS011;6172;42.646;23.344;2023-08-07T10:07:11;1.88;;;0.50;;
12218;SDS011;6172;42.646;23.344;2023-08-07T10:09:40;0.40;;;0.40;;
12218;SDS011;6172;42.646;23.344;2023-08-07T10:12:09;0.70;;;0.70;;
12218;SDS011;6172;42.646;23.344;2023-08-07T10:14:37;2.42;;;0.70;;
12218;SDS011;6172;42.646;23.344;2023-08-07T10:17:07;0.63;;;0.63;;
12218;SDS011;6172;42.646;23.344;2023-08-07T10:19:34;2.35;;;0.77;;
12218;SDS011;6172;42.646;23.344;2023-08-07T10:22:01;0.68;;;0.65;;
12218;SDS011;6172;42.646;23.344;2023-08-07T10:24:29;0.70;;;0.70;;
12218;SDS011;6172;42.646;23.344;2023-08-07T10:26:57;1.50;;;0.85;;
12218;SDS011;6172;42.646;23.344;2023-08-07T10:29:26;3.47;;;1.30;;
12218;SDS011;6172;42.646;23.344;2023-08-07T10:31:55;3.97;;;0.70;;
12218;SDS011;6172;42.646;23.344;2023-08-07T10:34:24;2.85;;;0.60;;
12218;SDS011;6172;42.646;23.344;2023-08-07T10:36:51;1.15;;;0.57;;
12218;SDS011;6172;42.646;23.344;2023-08-07T10:39:18;0.43;;;0.40;;
12218;SDS011;6172;42.646;23.344;2023-08-07T10:41:45;0.60;;;0.50;;
12218;SDS011;6172;42.646;23.344;2023-08-07T10:44:19;0.60;;;0.60;;
12218;SDS011;6172;42.646;23.344;2023-08-07T10:46:47;0.63;;;0.45;;
12218;SDS011;6172;42.646;23.344;2023-08-07T10:49:29;1.67;;;0.63;;
12218;SDS011;6172;42.646;23.344;2023-08-07T10:51:57;1.08;;;0.80;;
12218;SDS011;6172;42.646;23.344;2023-08-07T10:54:24;1.08;;;0.65;;
12218;SDS011;6172;42.646;23.344;2023-08-07T10:56:52;4.93;;;0.95;;
12218;SDS011;6172;42.646;23.344;2023-08-07T10:59:20;3.10;;;0.73;;
12218;SDS011;6172;42.646;23.344;2023-08-07T11:01:53;4.72;;;0.73;;
12218;SDS011;6172;42.646;23.344;2023-08-07T11:04:21;0.75;;;0.55;;
12218;SDS011;6172;42.646;23.344;2023-08-07T11:06:51;1.27;;;0.50;;
12218;SDS011;6172;42.646;23.344;2023-08-07T11:09:18;1.50;;;0.40;;
12218;SDS011;6172;42.646;23.344;2023-08-07T11:11:45;1.20;;;0.70;;
12218;SDS011;6172;42.646;23.344;2023-08-07T11:14:14;1.10;;;0.70;;
12218;SDS011;6172;42.646;23.344;2023-08-07T11:16:41;2.88;;;0.60;;
12218;SDS011;6172;42.646;23.344;2023-08-07T11:19:11;0.85;;;0.60;;
12218;SDS011;6172;42.646;23.344;2023-08-07T11:21:39;0.55;;;0.50;;
12218;SDS011;6172;42.646;23.344;2023-08-07T11:24:07;1.95;;;0.85;;
12218;SDS011;6172;42.646;23.344;2023-08-07T11:26:34;0.75;;;0.70;;
12218;SDS011;6172;42.646;23.344;2023-08-07T11:29:01;1.02;;;0.57;;
12218;SDS011;6172;42.646;23.344;2023-08-07T11:31:28;0.63;;;0.50;;
12218;SDS011;6172;42.646;23.344;2023-08-07T11:33:55;1.08;;;0.60;;
12218;SDS011;6172;42.646;23.344;2023-08-07T11:36:24;1.05;;;0.50;;
12218;SDS011;6172;42.646;23.344;2023-08-07T11:38:51;1.73;;;0.80;;
12218;SDS011;6172;42.646;23.344;2023-08-07T11:41:18;0.82;;;0.80;;
12218;SDS011;6172;42.646;23.344;2023-08-07T11:43:46;0.77;;;0.77;;
12218;SDS011;6172;42.646;23.344;2023-08-07T11:46:14;0.82;;;0.80;;
12218;SDS011;6172;42.646;23.344;2023-08-07T11:48:42;3.28;;;0.88;;
12218;SDS011;6172;42.646;23.344;2023-08-07T11:51:10;0.82;;;0.70;;
12218;SDS011;6172;42.646;23.344;2023-08-07T11:53:38;4.30;;;1.05;;
12218;SDS011;6172;42.646;23.344;2023-08-07T11:56:06;0.95;;;0.70;;
12218;SDS011;6172;42.646;23.344;2023-08-07T11:58:36;1.85;;;0.60;;
12218;SDS011;6172;42.646;23.344;2023-08-07T12:01:04;1.38;;;0.60;;
12218;SDS011;6172;42.646;23.344;2023-08-07T12:03:32;2.05;;;0.70;;
12218;SDS011;6172;42.646;23.344;2023-08-07T12:06:03;3.42;;;0.70;;
12218;SDS011;6172;42.646;23.344;2023-08-07T12:08:31;1.02;;;0.70;;
12218;SDS011;6172;42.646;23.344;2023-08-07T12:11:01;1.50;;;0.60;;
12218;SDS011;6172;42.646;23.344;2023-08-07T12:13:30;1.88;;;0.70;;
12218;SDS011;6172;42.646;23.344;2023-08-07T12:16:00;1.10;;;0.75;;
12218;SDS011;6172;42.646;23.344;2023-08-07T12:18:29;1.42;;;1.17;;
12218;SDS011;6172;42.646;23.344;2023-08-07T12:20:58;2.50;;;1.00;;
12218;SDS011;6172;42.646;23.344;2023-08-07T12:23:25;2.05;;;0.70;;
12218;SDS011;6172;42.646;23.344;2023-08-07T12:25:53;2.13;;;0.82;;
12218;SDS011;6172;42.646;23.344;2023-08-07T12:28:21;3.92;;;1.00;;
12218;SDS011;6172;42.646;23.344;2023-08-07T12:30:49;3.70;;;1.00;;
12218;SDS011;6172;42.646;23.344;2023-08-07T12:33:17;1.15;;;0.82;;
12218;SDS011;6172;42.646;23.344;2023-08-07T12:35:44;1.55;;;0.80;;
12218;SDS011;6172;42.646;23.344;2023-08-07T12:38:11;3.38;;;0.88;;
12218;SDS011;6172;42.646;23.344;2023-08-07T12:40:40;8.98;;;1.05;;
12218;SDS011;6172;42.646;23.344;2023-08-07T12:43:07;6.72;;;1.10;;
12218;SDS011;6172;42.646;23.344;2023-08-07T12:45:35;3.40;;;0.90;;
12218;SDS011;6172;42.646;23.344;2023-08-07T12:48:03;5.13;;;0.90;;
12218;SDS011;6172;42.646;23.344;2023-08-07T12:50:30;5.78;;;1.30;;
12218;SDS011;6172;42.646;23.344;2023-08-07T12:52:57;7.95;;;1.27;;
12218;SDS011;6172;42.646;23.344;2023-08-07T12:55:24;3.55;;;0.75;;
12218;SDS011;6172;42.646;23.344;2023-08-07T12:57:52;3.80;;;0.77;;
12218;SDS011;6172;42.646;23.344;2023-08-07T13:00:19;1.08;;;0.77;;
12218;SDS011;6172;42.646;23.344;2023-08-07T13:02:48;3.45;;;0.70;;
12218;SDS011;6172;42.646;23.344;2023-08-07T13:05:16;1.88;;;0.80;;
12218;SDS011;6172;42.646;23.344;2023-08-07T13:07:44;3.83;;;0.80;;
12218;SDS011;6172;42.646;23.344;2023-08-07T13:10:12;3.58;;;1.00;;
12218;SDS011;6172;42.646;23.344;2023-08-07T13:12:41;3.15;;;1.10;;
12218;SDS011;6172;42.646;23.344;2023-08-07T13:15:09;2.85;;;0.52;;
12218;SDS011;6172;42.646;23.344;2023-08-07T13:17:39;2.38;;;0.80;;
12218;SDS011;6172;42.646;23.344;2023-08-07T13:20:09;0.70;;;0.63;;
12218;SDS011;6172;42.646;23.344;2023-08-07T13:22:38;3.53;;;0.90;;
12218;SDS011;6172;42.646;23.344;2023-08-07T13:25:05;2.80;;;1.05;;
12218;SDS011;6172;42.646;23.344;2023-08-07T13:27:33;3.55;;;1.02;;
12218;SDS011;6172;42.646;23.344;2023-08-07T13:30:01;1.23;;;0.93;;
12218;SDS011;6172;42.646;23.344;2023-08-07T13:32:28;2.72;;;0.82;;
12218;SDS011;6172;42.646;23.344;2023-08-07T13:34:57;5.13;;;1.00;;
12218;SDS011;6172;42.646;23.344;2023-08-07T13:37:25;1.05;;;0.90;;
12218;SDS011;6172;42.646;23.344;2023-08-07T13:39:52;2.33;;;0.80;;
12218;SDS011;6172;42.646;23.344;2023-08-07T13:42:19;5.10;;;1.15;;
12218;SDS011;6172;42.646;23.344;2023-08-07T13:44:46;1.25;;;0.70;;
12218;SDS011;6172;42.646;23.344;2023-08-07T13:47:13;1.63;;;0.60;;
12218;SDS011;6172;42.646;23.344;2023-08-07T13:49:43;1.42;;;0.70;;
12218;SDS011;6172;42.646;23.344;2023-08-07T13:52:09;1.88;;;0.45;;
12218;SDS011;6172;42.646;23.344;2023-08-07T13:54:38;0.73;;;0.68;;
12218;SDS011;6172;42.646;23.344;2023-08-07T13:57:05;0.57;;;0.57;;
12218;SDS011;6172;42.646;23.344;2023-08-07T13:59:32;1.85;;;0.77;;
12218;SDS011;6172;42.646;23.344;2023-08-07T14:01:59;2.42;;;0.85;;
12218;SDS011;6172;42.646;23.344;2023-08-07T14:04:26;1.25;;;0.68;;
12218;SDS011;6172;42.646;23.344;2023-08-07T14:06:52;0.55;;;0.52;;
12218;SDS011;6172;42.646;23.344;2023-08-07T14:09:19;0.70;;;0.70;;
12218;SDS011;6172;42.646;23.344;2023-08-07T14:11:48;1.55;;;0.63;;
12218;SDS011;6172;42.646;23.344;2023-08-07T14:14:15;2.25;;;0.75;;
12218;SDS011;6172;42.646;23.344;2023-08-07T14:16:42;0.70;;;0.70;;
12218;SDS011;6172;42.646;23.344;2023-08-07T14:19:10;6.35;;;1.00;;
12218;SDS011;6172;42.646;23.344;2023-08-07T14:21:37;0.73;;;0.65;;
12218;SDS011;6172;42.646;23.344;2023-08-07T14:24:04;0.98;;;0.88;;
12218;SDS011;6172;42.646;23.344;2023-08-07T14:26:31;1.85;;;0.77;;
12218;SDS011;6172;42.646;23.344;2023-08-07T14:28:59;2.60;;;0.90;;
12218;SDS011;6172;42.646;23.344;2023-08-07T14:31:26;2.83;;;0.85;;
12218;SDS011;6172;42.646;23.344;2023-08-07T14:33:54;2.78;;;0.70;;
12218;SDS011;6172;42.646;23.344;2023-08-07T14:36:21;2.72;;;0.60;;
12218;SDS011;6172;42.646;23.344;2023-08-07T14:38:48;0.85;;;0.50;;
12218;SDS011;6172;42.646;23.344;2023-08-07T14:41:17;1.20;;;0.50;;
12218;SDS011;6172;42.646;23.344;2023-08-07T14:43:45;2.08;;;0.80;;
12218;SDS011;6172;42.646;23.344;2023-08-07T14:46:15;1.35;;;0.90;;
12218;SDS011;6172;42.646;23.344;2023-08-07T14:48:43;0.80;;;0.80;;
12218;SDS011;6172;42.646;23.344;2023-08-07T14:51:13;0.85;;;0.60;;